sensor_id;sensor_type;location;lat;lon;timestamp;temperature;humidity
17988;DHT22;9119;50.932;5.342;2023-07-29T00:02:08;20.90;99.90
17988;DHT22;9119;50.932;5.342;2023-07-29T00:04:34;21.00;99.90
17988;DHT22;9119;50.932;5.342;2023-07-29T00:06:59;20.90;99.90
17988;DHT22;9119;50.932;5.342;2023-07-29T00:09:25;20.80;99.90
17988;DHT22;9119;50.932;5.342;2023-07-29T00:11:51;20.70;99.90
17988;DHT22;9119;50.932;5.342;2023-07-29T00:14:16;20.80;99.90
17988;DHT22;9119;50.932;5.342;2023-07-29T00:16:42;20.90;99.90
17988;DHT22;9119;50.932;5.342;2023-07-29T00:19:08;20.90;99.90
17988;DHT22;9119;50.932;5.342;2023-07-29T00:21:34;20.90;99.90
17988;DHT22;9119;50.932;5.342;2023-07-29T00:24:00;20.90;99.90
17988;DHT22;9119;50.932;5.342;2023-07-29T00:26:27;20.80;99.90
17988;DHT22;9119;50.932;5.342;2023-07-29T00:28:55;20.80;99.90
17988;DHT22;9119;50.932;5.342;2023-07-29T00:31:20;20.80;99.90
17988;DHT22;9119;50.932;5.342;2023-07-29T00:33:46;20.80;99.90
17988;DHT22;9119;50.932;5.342;2023-07-29T00:36:12;20.90;99.90
17988;DHT22;9119;50.932;5.342;2023-07-29T00:38:37;20.80;99.90
17988;DHT22;9119;50.932;5.342;2023-07-29T00:41:03;20.80;99.90
17988;DHT22;9119;50.932;5.342;2023-07-29T00:43:29;20.90;99.90
17988;DHT22;9119;50.932;5.342;2023-07-29T00:45:55;20.90;99.90
17988;DHT22;9119;50.932;5.342;2023-07-29T00:48:23;20.90;99.90
17988;DHT22;9119;50.932;5.342;2023-07-29T00:50:49;20.90;99.90
17988;DHT22;9119;50.932;5.342;2023-07-29T00:53:15;20.90;99.90
17988;DHT22;9119;50.932;5.342;2023-07-29T00:55:41;21.00;99.90
17988;DHT22;9119;50.932;5.342;2023-07-29T00:58:07;21.20;99.90
17988;DHT22;9119;50.932;5.342;2023-07-29T01:00:33;21.00;99.90
17988;DHT22;9119;50.932;5.342;2023-07-29T01:02:58;20.90;99.90
17988;DHT22;9119;50.932;5.342;2023-07-29T01:05:46;20.90;99.90
17988;DHT22;9119;50.932;5.342;2023-07-29T01:08:33;20.90;99.90
17988;DHT22;9119;50.932;5.342;2023-07-29T01:14:01;20.60;99.90
17988;DHT22;9119;50.932;5.342;2023-07-29T01:16:52;20.60;99.90
17988;DHT22;9119;50.932;5.342;2023-07-29T01:22:05;20.40;99.90
17988;DHT22;9119;50.932;5.342;2023-07-29T01:24:32;20.40;99.90
17988;DHT22;9119;50.932;5.342;2023-07-29T01:26:58;20.50;99.90
17988;DHT22;9119;50.932;5.342;2023-07-29T01:29:24;20.60;99.90
17988;DHT22;9119;50.932;5.342;2023-07-29T01:31:52;20.60;99.90
17988;DHT22;9119;50.932;5.342;2023-07-29T01:34:35;20.70;99.90
17988;DHT22;9119;50.932;5.342;2023-07-29T01:37:06;20.60;99.90
17988;DHT22;9119;50.932;5.342;2023-07-29T01:39:35;20.60;99.90
17988;DHT22;9119;50.932;5.342;2023-07-29T01:42:02;20.60;99.90
17988;DHT22;9119;50.932;5.342;2023-07-29T01:44:28;20.70;99.90
17988;DHT22;9119;50.932;5.342;2023-07-29T01:46:55;20.60;99.90
17988;DHT22;9119;50.932;5.342;2023-07-29T01:49:21;20.60;99.90
17988;DHT22;9119;50.932;5.342;2023-07-29T01:51:47;20.50;99.90
17988;DHT22;9119;50.932;5.342;2023-07-29T01:54:13;20.30;99.90
17988;DHT22;9119;50.932;5.342;2023-07-29T01:56:38;20.30;99.90
17988;DHT22;9119;50.932;5.342;2023-07-29T01:59:04;20.20;99.90
17988;DHT22;9119;50.932;5.342;2023-07-29T02:01:30;20.10;99.90
17988;DHT22;9119;50.932;5.342;2023-07-29T02:03:56;20.10;99.90
17988;DHT22;9119;50.932;5.342;2023-07-29T02:06:22;20.10;99.90
17988;DHT22;9119;50.932;5.342;2023-07-29T02:08:48;20.00;99.90
17988;DHT22;9119;50.932;5.342;2023-07-29T02:11:13;19.90;99.90
17988;DHT22;9119;50.932;5.342;2023-07-29T02:13:39;19.80;99.90
17988;DHT22;9119;50.932;5.342;2023-07-29T02:16:05;19.80;99.90
17988;DHT22;9119;50.932;5.342;2023-07-29T02:18:30;19.80;99.90
17988;DHT22;9119;50.932;5.342;2023-07-29T02:20:56;19.80;99.90
17988;DHT22;9119;50.932;5.342;2023-07-29T02:23:22;19.70;99.90
17988;DHT22;9119;50.932;5.342;2023-07-29T02:25:48;19.70;99.90
17988;DHT22;9119;50.932;5.342;2023-07-29T02:28:14;19.70;99.90
17988;DHT22;9119;50.932;5.342;2023-07-29T02:30:41;19.70;99.90
17988;DHT22;9119;50.932;5.342;2023-07-29T02:33:07;19.80;99.90
17988;DHT22;9119;50.932;5.342;2023-07-29T02:35:32;19.70;99.90
17988;DHT22;9119;50.932;5.342;2023-07-29T02:37:58;19.70;99.90
17988;DHT22;9119;50.932;5.342;2023-07-29T02:40:24;19.70;99.90
17988;DHT22;9119;50.932;5.342;2023-07-29T02:42:52;19.60;99.90
17988;DHT22;9119;50.932;5.342;2023-07-29T02:45:17;19.60;99.90
17988;DHT22;9119;50.932;5.342;2023-07-29T02:47:43;19.50;99.90
17988;DHT22;9119;50.932;5.342;2023-07-29T02:50:09;19.50;99.90
17988;DHT22;9119;50.932;5.342;2023-07-29T02:52:34;19.50;99.90
17988;DHT22;9119;50.932;5.342;2023-07-29T02:55:00;19.50;99.90
17988;DHT22;9119;50.932;5.342;2023-07-29T02:57:26;19.40;99.90
17988;DHT22;9119;50.932;5.342;2023-07-29T02:59:51;19.40;99.90
17988;DHT22;9119;50.932;5.342;2023-07-29T03:02:17;19.40;99.90
17988;DHT22;9119;50.932;5.342;2023-07-29T03:04:43;19.50;99.90
17988;DHT22;9119;50.932;5.342;2023-07-29T03:07:08;19.40;99.90
17988;DHT22;9119;50.932;5.342;2023-07-29T03:09:34;19.20;99.90
17988;DHT22;9119;50.932;5.342;2023-07-29T03:11:59;19.20;99.90
17988;DHT22;9119;50.932;5.342;2023-07-29T03:14:26;19.20;99.90
17988;DHT22;9119;50.932;5.342;2023-07-29T03:16:51;19.20;99.90
17988;DHT22;9119;50.932;5.342;2023-07-29T03:19:17;19.20;99.90
17988;DHT22;9119;50.932;5.342;2023-07-29T03:21:43;19.20;99.90
17988;DHT22;9119;50.932;5.342;2023-07-29T03:24:09;19.20;99.90
17988;DHT22;9119;50.932;5.342;2023-07-29T03:26:34;19.20;99.90
17988;DHT22;9119;50.932;5.342;2023-07-29T03:29:00;19.10;99.90
17988;DHT22;9119;50.932;5.342;2023-07-29T03:31:25;19.10;99.90
17988;DHT22;9119;50.932;5.342;2023-07-29T03:33:51;19.00;99.90
17988;DHT22;9119;50.932;5.342;2023-07-29T03:36:17;18.90;99.90
17988;DHT22;9119;50.932;5.342;2023-07-29T03:38:42;18.80;99.90
17988;DHT22;9119;50.932;5.342;2023-07-29T03:41:10;18.90;99.90
17988;DHT22;9119;50.932;5.342;2023-07-29T03:43:36;18.90;99.90
17988;DHT22;9119;50.932;5.342;2023-07-29T03:46:01;18.90;99.90
17988;DHT22;9119;50.932;5.342;2023-07-29T03:48:27;18.90;99.90
17988;DHT22;9119;50.932;5.342;2023-07-29T03:50:53;19.00;99.90
17988;DHT22;9119;50.932;5.342;2023-07-29T03:53:19;19.00;99.90
17988;DHT22;9119;50.932;5.342;2023-07-29T03:55:45;19.00;99.90
17988;DHT22;9119;50.932;5.342;2023-07-29T03:58:12;19.00;99.90
17988;DHT22;9119;50.932;5.342;2023-07-29T04:00:38;19.00;99.90
17988;DHT22;9119;50.932;5.342;2023-07-29T04:03:04;19.00;99.90
17988;DHT22;9119;50.932;5.342;2023-07-29T04:05:29;18.90;99.90
17988;DHT22;9119;50.932;5.342;2023-07-29T04:07:55;18.80;99.90
17988;DHT22;9119;50.932;5.342;2023-07-29T04:10:21;18.80;99.90
17988;DHT22;9119;50.932;5.342;2023-07-29T04:12:46;18.80;99.90
17988;DHT22;9119;50.932;5.342;2023-07-29T04:15:12;18.80;99.90
17988;DHT22;9119;50.932;5.342;2023-07-29T04:17:38;18.80;99.90
17988;DHT22;9119;50.932;5.342;2023-07-29T04:20:03;18.80;99.90
17988;DHT22;9119;50.932;5.342;2023-07-29T04:22:29;18.80;99.90
17988;DHT22;9119;50.932;5.342;2023-07-29T04:24:55;18.80;99.90
17988;DHT22;9119;50.932;5.342;2023-07-29T04:27:21;18.80;99.90
17988;DHT22;9119;50.932;5.342;2023-07-29T04:29:46;18.80;99.90
17988;DHT22;9119;50.932;5.342;2023-07-29T04:32:12;18.80;99.90
17988;DHT22;9119;50.932;5.342;2023-07-29T04:34:37;18.60;99.90
17988;DHT22;9119;50.932;5.342;2023-07-29T04:37:03;18.60;99.90
17988;DHT22;9119;50.932;5.342;2023-07-29T04:39:29;18.60;99.90
17988;DHT22;9119;50.932;5.342;2023-07-29T04:41:57;18.70;99.90
17988;DHT22;9119;50.932;5.342;2023-07-29T04:44:23;18.70;99.90
17988;DHT22;9119;50.932;5.342;2023-07-29T04:46:48;18.60;99.90
17988;DHT22;9119;50.932;5.342;2023-07-29T04:49:14;18.60;99.90
17988;DHT22;9119;50.932;5.342;2023-07-29T04:51:39;18.50;99.90
17988;DHT22;9119;50.932;5.342;2023-07-29T04:54:05;18.60;99.90
17988;DHT22;9119;50.932;5.342;2023-07-29T04:56:31;18.60;99.90
17988;DHT22;9119;50.932;5.342;2023-07-29T04:58:56;18.60;99.90
17988;DHT22;9119;50.932;5.342;2023-07-29T05:01:22;18.60;99.90
17988;DHT22;9119;50.932;5.342;2023-07-29T05:03:47;18.60;99.90
17988;DHT22;9119;50.932;5.342;2023-07-29T05:06:13;18.50;99.90
17988;DHT22;9119;50.932;5.342;2023-07-29T05:08:39;18.60;99.90
17988;DHT22;9119;50.932;5.342;2023-07-29T05:11:04;18.60;99.90
17988;DHT22;9119;50.932;5.342;2023-07-29T05:13:30;18.50;99.90
17988;DHT22;9119;50.932;5.342;2023-07-29T05:15:56;18.50;99.90
17988;DHT22;9119;50.932;5.342;2023-07-29T05:18:21;18.40;99.90
17988;DHT22;9119;50.932;5.342;2023-07-29T05:20:47;18.40;99.90
17988;DHT22;9119;50.932;5.342;2023-07-29T05:23:13;18.50;99.90
17988;DHT22;9119;50.932;5.342;2023-07-29T05:25:39;18.50;99.90
17988;DHT22;9119;50.932;5.342;2023-07-29T05:28:05;18.50;99.90
17988;DHT22;9119;50.932;5.342;2023-07-29T05:30:32;18.50;99.90
17988;DHT22;9119;50.932;5.342;2023-07-29T05:33:00;18.60;99.90
17988;DHT22;9119;50.932;5.342;2023-07-29T05:35:26;18.70;99.90
17988;DHT22;9119;50.932;5.342;2023-07-29T05:37:51;18.70;99.90
17988;DHT22;9119;50.932;5.342;2023-07-29T05:40:17;18.80;99.90
17988;DHT22;9119;50.932;5.342;2023-07-29T05:42:43;18.70;99.90
17988;DHT22;9119;50.932;5.342;2023-07-29T05:45:10;18.70;99.90
17988;DHT22;9119;50.932;5.342;2023-07-29T05:47:36;18.80;99.90
17988;DHT22;9119;50.932;5.342;2023-07-29T05:50:02;18.90;99.90
17988;DHT22;9119;50.932;5.342;2023-07-29T05:52:30;19.00;99.90
17988;DHT22;9119;50.932;5.342;2023-07-29T05:54:56;19.00;99.90
17988;DHT22;9119;50.932;5.342;2023-07-29T05:57:22;19.00;99.90
17988;DHT22;9119;50.932;5.342;2023-07-29T05:59:47;18.90;99.90
17988;DHT22;9119;50.932;5.342;2023-07-29T06:02:13;18.80;99.90
17988;DHT22;9119;50.932;5.342;2023-07-29T06:04:39;18.80;99.90
17988;DHT22;9119;50.932;5.342;2023-07-29T06:07:05;18.80;99.90
17988;DHT22;9119;50.932;5.342;2023-07-29T06:09:31;18.80;99.90
17988;DHT22;9119;50.932;5.342;2023-07-29T06:11:57;18.90;99.90
17988;DHT22;9119;50.932;5.342;2023-07-29T06:14:22;18.90;99.90
17988;DHT22;9119;50.932;5.342;2023-07-29T06:16:48;18.80;99.90
17988;DHT22;9119;50.932;5.342;2023-07-29T06:19:14;18.80;99.90
17988;DHT22;9119;50.932;5.342;2023-07-29T06:21:40;18.90;99.90
17988;DHT22;9119;50.932;5.342;2023-07-29T06:24:05;19.00;99.90
17988;DHT22;9119;50.932;5.342;2023-07-29T06:26:31;19.10;99.90
17988;DHT22;9119;50.932;5.342;2023-07-29T06:28:56;19.20;99.90
17988;DHT22;9119;50.932;5.342;2023-07-29T06:31:22;19.20;99.90
17988;DHT22;9119;50.932;5.342;2023-07-29T06:33:48;19.30;99.90
17988;DHT22;9119;50.932;5.342;2023-07-29T06:36:13;19.50;99.90
17988;DHT22;9119;50.932;5.342;2023-07-29T06:38:39;19.70;99.90
17988;DHT22;9119;50.932;5.342;2023-07-29T06:41:05;19.70;99.90
17988;DHT22;9119;50.932;5.342;2023-07-29T06:43:30;19.60;99.90
17988;DHT22;9119;50.932;5.342;2023-07-29T06:45:56;19.70;99.90
17988;DHT22;9119;50.932;5.342;2023-07-29T06:48:22;19.70;99.90
17988;DHT22;9119;50.932;5.342;2023-07-29T06:50:49;19.70;99.90
17988;DHT22;9119;50.932;5.342;2023-07-29T06:53:15;19.70;99.90
17988;DHT22;9119;50.932;5.342;2023-07-29T06:55:41;19.80;99.90
17988;DHT22;9119;50.932;5.342;2023-07-29T06:58:07;19.90;99.90
17988;DHT22;9119;50.932;5.342;2023-07-29T07:00:32;20.00;99.90
17988;DHT22;9119;50.932;5.342;2023-07-29T07:02:58;20.00;99.90
17988;DHT22;9119;50.932;5.342;2023-07-29T07:05:24;20.10;99.90
17988;DHT22;9119;50.932;5.342;2023-07-29T07:07:50;20.20;99.90
17988;DHT22;9119;50.932;5.342;2023-07-29T07:10:15;20.40;99.90
17988;DHT22;9119;50.932;5.342;2023-07-29T07:12:41;20.40;99.90
17988;DHT22;9119;50.932;5.342;2023-07-29T07:15:07;20.30;99.90
17988;DHT22;9119;50.932;5.342;2023-07-29T07:17:33;20.40;99.90
17988;DHT22;9119;50.932;5.342;2023-07-29T07:19:58;20.40;99.90
17988;DHT22;9119;50.932;5.342;2023-07-29T07:22:24;20.40;99.90
17988;DHT22;9119;50.932;5.342;2023-07-29T07:24:50;20.40;99.90
17988;DHT22;9119;50.932;5.342;2023-07-29T07:27:15;20.50;99.90
17988;DHT22;9119;50.932;5.342;2023-07-29T07:29:41;20.70;99.90
17988;DHT22;9119;50.932;5.342;2023-07-29T07:32:07;20.70;99.90
17988;DHT22;9119;50.932;5.342;2023-07-29T07:34:33;20.60;99.90
17988;DHT22;9119;50.932;5.342;2023-07-29T07:37:00;20.50;99.90
17988;DHT22;9119;50.932;5.342;2023-07-29T07:39:26;20.40;99.90
17988;DHT22;9119;50.932;5.342;2023-07-29T07:41:51;20.40;99.90
17988;DHT22;9119;50.932;5.342;2023-07-29T07:44:18;20.50;99.90
17988;DHT22;9119;50.932;5.342;2023-07-29T07:46:45;20.70;99.90
17988;DHT22;9119;50.932;5.342;2023-07-29T07:49:11;20.70;99.90
17988;DHT22;9119;50.932;5.342;2023-07-29T07:51:38;20.70;99.90
17988;DHT22;9119;50.932;5.342;2023-07-29T07:54:04;20.70;99.90
17988;DHT22;9119;50.932;5.342;2023-07-29T07:56:30;20.80;99.90
17988;DHT22;9119;50.932;5.342;2023-07-29T07:58:55;20.80;99.90
17988;DHT22;9119;50.932;5.342;2023-07-29T08:01:21;20.80;99.90
17988;DHT22;9119;50.932;5.342;2023-07-29T08:03:47;20.80;99.90
17988;DHT22;9119;50.932;5.342;2023-07-29T08:06:12;20.90;99.90
17988;DHT22;9119;50.932;5.342;2023-07-29T08:08:38;21.00;99.90
17988;DHT22;9119;50.932;5.342;2023-07-29T08:11:04;21.00;99.90
17988;DHT22;9119;50.932;5.342;2023-07-29T08:13:29;21.20;99.90
17988;DHT22;9119;50.932;5.342;2023-07-29T08:15:55;21.40;99.90
17988;DHT22;9119;50.932;5.342;2023-07-29T08:18:21;21.40;99.90
17988;DHT22;9119;50.932;5.342;2023-07-29T08:20:58;21.50;99.90
17988;DHT22;9119;50.932;5.342;2023-07-29T08:23:27;21.50;99.90
17988;DHT22;9119;50.932;5.342;2023-07-29T08:25:56;21.40;99.90
17988;DHT22;9119;50.932;5.342;2023-07-29T08:28:31;21.30;99.90
17988;DHT22;9119;50.932;5.342;2023-07-29T08:30:57;21.30;99.90
17988;DHT22;9119;50.932;5.342;2023-07-29T08:33:22;21.20;99.90
17988;DHT22;9119;50.932;5.342;2023-07-29T08:35:48;21.20;99.90
17988;DHT22;9119;50.932;5.342;2023-07-29T08:38:14;21.20;99.90
17988;DHT22;9119;50.932;5.342;2023-07-29T08:43:30;21.40;99.90
17988;DHT22;9119;50.932;5.342;2023-07-29T08:46:00;21.50;99.90
17988;DHT22;9119;50.932;5.342;2023-07-29T08:48:35;21.50;99.90
17988;DHT22;9119;50.932;5.342;2023-07-29T08:51:03;21.70;99.90
17988;DHT22;9119;50.932;5.342;2023-07-29T08:53:31;21.90;99.90
17988;DHT22;9119;50.932;5.342;2023-07-29T08:55:57;22.00;99.90
17988;DHT22;9119;50.932;5.342;2023-07-29T08:58:23;22.00;99.90
17988;DHT22;9119;50.932;5.342;2023-07-29T09:00:50;22.10;99.90
17988;DHT22;9119;50.932;5.342;2023-07-29T09:03:16;22.00;99.90
17988;DHT22;9119;50.932;5.342;2023-07-29T09:05:41;22.10;99.90
17988;DHT22;9119;50.932;5.342;2023-07-29T09:08:07;22.00;99.90
17988;DHT22;9119;50.932;5.342;2023-07-29T09:10:36;22.00;99.90
17988;DHT22;9119;50.932;5.342;2023-07-29T09:13:06;22.20;99.90
17988;DHT22;9119;50.932;5.342;2023-07-29T09:15:34;22.30;99.90
17988;DHT22;9119;50.932;5.342;2023-07-29T09:18:12;22.30;99.90
17988;DHT22;9119;50.932;5.342;2023-07-29T09:20:40;22.50;99.90
17988;DHT22;9119;50.932;5.342;2023-07-29T09:23:08;22.60;99.90
17988;DHT22;9119;50.932;5.342;2023-07-29T09:25:36;22.60;99.90
17988;DHT22;9119;50.932;5.342;2023-07-29T09:28:16;22.70;99.90
17988;DHT22;9119;50.932;5.342;2023-07-29T09:30:46;22.70;99.90
17988;DHT22;9119;50.932;5.342;2023-07-29T09:33:12;22.80;99.90
17988;DHT22;9119;50.932;5.342;2023-07-29T09:35:38;22.90;99.90
17988;DHT22;9119;50.932;5.342;2023-07-29T09:38:05;22.70;99.90
17988;DHT22;9119;50.932;5.342;2023-07-29T09:40:39;22.70;99.90
17988;DHT22;9119;50.932;5.342;2023-07-29T09:43:05;22.70;99.90
17988;DHT22;9119;50.932;5.342;2023-07-29T09:45:33;22.70;99.90
17988;DHT22;9119;50.932;5.342;2023-07-29T09:47:59;22.60;99.90
17988;DHT22;9119;50.932;5.342;2023-07-29T09:50:26;22.50;99.90
17988;DHT22;9119;50.932;5.342;2023-07-29T09:52:53;22.30;99.90
17988;DHT22;9119;50.932;5.342;2023-07-29T09:55:22;22.60;99.90
17988;DHT22;9119;50.932;5.342;2023-07-29T09:57:53;23.40;99.90
17988;DHT22;9119;50.932;5.342;2023-07-29T10:00:19;24.00;99.90
17988;DHT22;9119;50.932;5.342;2023-07-29T10:02:45;24.40;99.90
17988;DHT22;9119;50.932;5.342;2023-07-29T10:05:11;25.00;99.90
17988;DHT22;9119;50.932;5.342;2023-07-29T10:07:38;25.30;99.90
17988;DHT22;9119;50.932;5.342;2023-07-29T10:10:05;25.10;99.90
17988;DHT22;9119;50.932;5.342;2023-07-29T10:12:32;25.40;99.90
17988;DHT22;9119;50.932;5.342;2023-07-29T10:15:00;25.10;99.90
17988;DHT22;9119;50.932;5.342;2023-07-29T10:17:26;24.80;99.90
17988;DHT22;9119;50.932;5.342;2023-07-29T10:19:54;24.40;99.90
17988;DHT22;9119;50.932;5.342;2023-07-29T10:22:21;24.00;99.90
17988;DHT22;9119;50.932;5.342;2023-07-29T10:24:51;24.10;99.90
17988;DHT22;9119;50.932;5.342;2023-07-29T10:27:19;24.20;99.90
17988;DHT22;9119;50.932;5.342;2023-07-29T10:29:46;24.50;99.90
17988;DHT22;9119;50.932;5.342;2023-07-29T10:32:13;24.40;99.90
17988;DHT22;9119;50.932;5.342;2023-07-29T10:34:39;24.10;99.90
17988;DHT22;9119;50.932;5.342;2023-07-29T10:37:05;24.00;99.90
17988;DHT22;9119;50.932;5.342;2023-07-29T10:39:39;24.10;99.90
17988;DHT22;9119;50.932;5.342;2023-07-29T10:42:06;24.70;99.90
17988;DHT22;9119;50.932;5.342;2023-07-29T10:47:18;25.70;99.90
17988;DHT22;9119;50.932;5.342;2023-07-29T10:49:45;24.90;99.90
17988;DHT22;9119;50.932;5.342;2023-07-29T10:52:15;24.50;99.90
17988;DHT22;9119;50.932;5.342;2023-07-29T10:54:43;24.30;99.90
17988;DHT22;9119;50.932;5.342;2023-07-29T10:57:13;23.80;99.90
17988;DHT22;9119;50.932;5.342;2023-07-29T10:59:40;23.70;99.90
17988;DHT22;9119;50.932;5.342;2023-07-29T11:02:17;23.60;99.90
17988;DHT22;9119;50.932;5.342;2023-07-29T11:04:47;23.60;99.90
17988;DHT22;9119;50.932;5.342;2023-07-29T11:15:15;22.80;99.90
17988;DHT22;9119;50.932;5.342;2023-07-29T11:17:44;23.00;99.90
17988;DHT22;9119;50.932;5.342;2023-07-29T11:20:11;22.90;99.90
17988;DHT22;9119;50.932;5.342;2023-07-29T11:22:37;22.90;99.90
17988;DHT22;9119;50.932;5.342;2023-07-29T11:25:04;22.90;99.90
17988;DHT22;9119;50.932;5.342;2023-07-29T11:27:30;22.90;99.90
17988;DHT22;9119;50.932;5.342;2023-07-29T11:29:58;22.70;99.90
17988;DHT22;9119;50.932;5.342;2023-07-29T11:32:24;22.40;99.90
17988;DHT22;9119;50.932;5.342;2023-07-29T11:34:50;22.20;99.90
17988;DHT22;9119;50.932;5.342;2023-07-29T11:37:16;22.00;99.90
17988;DHT22;9119;50.932;5.342;2023-07-29T11:39:43;21.90;99.90
17988;DHT22;9119;50.932;5.342;2023-07-29T11:42:13;21.80;99.90
17988;DHT22;9119;50.932;5.342;2023-07-29T11:44:39;21.70;99.90
17988;DHT22;9119;50.932;5.342;2023-07-29T11:47:09;21.80;99.90
17988;DHT22;9119;50.932;5.342;2023-07-29T11:49:35;21.70;99.90
17988;DHT22;9119;50.932;5.342;2023-07-29T11:52:09;21.80;99.90
17988;DHT22;9119;50.932;5.342;2023-07-29T11:54:36;21.70;99.90
17988;DHT22;9119;50.932;5.342;2023-07-29T11:57:05;21.60;99.90
17988;DHT22;9119;50.932;5.342;2023-07-29T11:59:32;21.50;99.90
17988;DHT22;9119;50.932;5.342;2023-07-29T12:02:00;21.60;99.90
17988;DHT22;9119;50.932;5.342;2023-07-29T12:04:26;21.60;99.90
17988;DHT22;9119;50.932;5.342;2023-07-29T12:06:52;21.60;99.90
17988;DHT22;9119;50.932;5.342;2023-07-29T12:09:18;21.40;99.90
17988;DHT22;9119;50.932;5.342;2023-07-29T12:11:44;21.30;99.90
17988;DHT22;9119;50.932;5.342;2023-07-29T12:14:10;21.40;99.90
17988;DHT22;9119;50.932;5.342;2023-07-29T12:16:43;21.00;99.90
17988;DHT22;9119;50.932;5.342;2023-07-29T12:19:12;21.30;99.90
17988;DHT22;9119;50.932;5.342;2023-07-29T12:21:40;21.40;99.90
17988;DHT22;9119;50.932;5.342;2023-07-29T12:24:05;21.40;99.90
17988;DHT22;9119;50.932;5.342;2023-07-29T12:26:31;21.30;99.90
17988;DHT22;9119;50.932;5.342;2023-07-29T12:28:57;21.20;99.90
17988;DHT22;9119;50.932;5.342;2023-07-29T12:31:31;21.20;99.90
17988;DHT22;9119;50.932;5.342;2023-07-29T12:33:57;21.00;99.90
17988;DHT22;9119;50.932;5.342;2023-07-29T12:36:39;20.90;99.90
17988;DHT22;9119;50.932;5.342;2023-07-29T12:39:05;20.60;99.90
17988;DHT22;9119;50.932;5.342;2023-07-29T12:41:31;20.30;99.90
17988;DHT22;9119;50.932;5.342;2023-07-29T12:43:57;20.20;99.90
17988;DHT22;9119;50.932;5.342;2023-07-29T12:46:22;20.40;99.90
17988;DHT22;9119;50.932;5.342;2023-07-29T12:48:54;20.60;99.90
17988;DHT22;9119;50.932;5.342;2023-07-29T12:51:19;21.30;99.90
17988;DHT22;9119;50.932;5.342;2023-07-29T12:53:45;22.10;99.90
17988;DHT22;9119;50.932;5.342;2023-07-29T12:56:11;22.30;99.90
17988;DHT22;9119;50.932;5.342;2023-07-29T12:58:36;22.20;99.90
17988;DHT22;9119;50.932;5.342;2023-07-29T13:01:02;22.20;99.90
17988;DHT22;9119;50.932;5.342;2023-07-29T13:03:27;22.80;99.90
17988;DHT22;9119;50.932;5.342;2023-07-29T13:05:54;23.60;99.90
17988;DHT22;9119;50.932;5.342;2023-07-29T13:08:19;23.80;99.90
17988;DHT22;9119;50.932;5.342;2023-07-29T13:10:46;23.70;99.90
17988;DHT22;9119;50.932;5.342;2023-07-29T13:13:11;23.00;99.90
17988;DHT22;9119;50.932;5.342;2023-07-29T13:15:37;22.80;99.90
17988;DHT22;9119;50.932;5.342;2023-07-29T13:18:02;22.90;99.90
17988;DHT22;9119;50.932;5.342;2023-07-29T13:20:29;23.50;99.90
17988;DHT22;9119;50.932;5.342;2023-07-29T13:22:55;24.00;99.90
17988;DHT22;9119;50.932;5.342;2023-07-29T13:25:21;23.40;99.90
17988;DHT22;9119;50.932;5.342;2023-07-29T13:27:46;22.90;99.90
17988;DHT22;9119;50.932;5.342;2023-07-29T13:30:12;22.60;99.90
17988;DHT22;9119;50.932;5.342;2023-07-29T13:32:37;22.40;99.90
17988;DHT22;9119;50.932;5.342;2023-07-29T13:35:03;22.20;99.90
17988;DHT22;9119;50.932;5.342;2023-07-29T13:37:29;22.20;99.90
17988;DHT22;9119;50.932;5.342;2023-07-29T13:39:54;22.00;99.90
17988;DHT22;9119;50.932;5.342;2023-07-29T13:42:20;21.70;99.90
17988;DHT22;9119;50.932;5.342;2023-07-29T13:44:46;21.60;99.90
17988;DHT22;9119;50.932;5.342;2023-07-29T13:47:11;21.50;99.90
17988;DHT22;9119;50.932;5.342;2023-07-29T13:49:37;21.20;99.90
17988;DHT22;9119;50.932;5.342;2023-07-29T13:52:03;21.10;99.90
17988;DHT22;9119;50.932;5.342;2023-07-29T13:54:28;21.30;99.90
17988;DHT22;9119;50.932;5.342;2023-07-29T13:56:54;21.90;99.90
17988;DHT22;9119;50.932;5.342;2023-07-29T13:59:20;22.30;99.90
17988;DHT22;9119;50.932;5.342;2023-07-29T14:01:45;22.70;99.90
17988;DHT22;9119;50.932;5.342;2023-07-29T14:04:11;23.30;99.90
17988;DHT22;9119;50.932;5.342;2023-07-29T14:06:36;24.00;99.90
17988;DHT22;9119;50.932;5.342;2023-07-29T14:09:02;24.30;99.90
17988;DHT22;9119;50.932;5.342;2023-07-29T14:11:28;24.60;99.90
17988;DHT22;9119;50.932;5.342;2023-07-29T14:13:53;25.20;99.90
17988;DHT22;9119;50.932;5.342;2023-07-29T14:16:19;25.80;99.90
17988;DHT22;9119;50.932;5.342;2023-07-29T14:18:44;26.50;99.90
17988;DHT22;9119;50.932;5.342;2023-07-29T14:21:10;26.20;99.90
17988;DHT22;9119;50.932;5.342;2023-07-29T14:23:36;26.20;99.90
17988;DHT22;9119;50.932;5.342;2023-07-29T14:26:01;25.90;99.90
17988;DHT22;9119;50.932;5.342;2023-07-29T14:28:27;25.70;99.90
17988;DHT22;9119;50.932;5.342;2023-07-29T14:30:53;25.00;99.90
17988;DHT22;9119;50.932;5.342;2023-07-29T14:33:18;24.40;99.90
17988;DHT22;9119;50.932;5.342;2023-07-29T14:35:44;24.30;99.90
17988;DHT22;9119;50.932;5.342;2023-07-29T14:38:09;24.40;99.90
17988;DHT22;9119;50.932;5.342;2023-07-29T14:40:35;24.50;99.90
17988;DHT22;9119;50.932;5.342;2023-07-29T14:43:01;24.50;99.90
17988;DHT22;9119;50.932;5.342;2023-07-29T14:45:27;24.80;99.90
17988;DHT22;9119;50.932;5.342;2023-07-29T14:47:52;25.50;99.90
17988;DHT22;9119;50.932;5.342;2023-07-29T14:50:18;26.20;99.90
17988;DHT22;9119;50.932;5.342;2023-07-29T14:52:43;26.60;99.90
17988;DHT22;9119;50.932;5.342;2023-07-29T14:55:09;26.50;99.90
17988;DHT22;9119;50.932;5.342;2023-07-29T14:57:35;26.10;99.90
17988;DHT22;9119;50.932;5.342;2023-07-29T15:00:00;25.50;99.90
17988;DHT22;9119;50.932;5.342;2023-07-29T15:02:26;24.70;99.90
17988;DHT22;9119;50.932;5.342;2023-07-29T15:04:52;24.40;99.90
17988;DHT22;9119;50.932;5.342;2023-07-29T15:07:18;24.40;99.90
17988;DHT22;9119;50.932;5.342;2023-07-29T15:09:43;24.20;99.90
17988;DHT22;9119;50.932;5.342;2023-07-29T15:12:09;24.20;99.90
17988;DHT22;9119;50.932;5.342;2023-07-29T15:14:34;24.20;99.90
17988;DHT22;9119;50.932;5.342;2023-07-29T15:17:00;24.20;99.90
17988;DHT22;9119;50.932;5.342;2023-07-29T15:19:26;24.40;99.90
17988;DHT22;9119;50.932;5.342;2023-07-29T15:21:51;25.00;99.90
17988;DHT22;9119;50.932;5.342;2023-07-29T15:24:17;25.00;99.90
17988;DHT22;9119;50.932;5.342;2023-07-29T15:26:43;24.80;99.90
17988;DHT22;9119;50.932;5.342;2023-07-29T15:29:08;25.00;99.90
17988;DHT22;9119;50.932;5.342;2023-07-29T15:31:35;25.10;99.90
17988;DHT22;9119;50.932;5.342;2023-07-29T15:34:01;25.00;99.90
17988;DHT22;9119;50.932;5.342;2023-07-29T15:36:26;24.60;99.90
17988;DHT22;9119;50.932;5.342;2023-07-29T15:38:52;24.30;99.90
17988;DHT22;9119;50.932;5.342;2023-07-29T15:41:17;24.10;99.90
17988;DHT22;9119;50.932;5.342;2023-07-29T15:43:43;24.20;99.90
17988;DHT22;9119;50.932;5.342;2023-07-29T15:46:09;24.40;99.90
17988;DHT22;9119;50.932;5.342;2023-07-29T15:48:34;24.70;99.90
17988;DHT22;9119;50.932;5.342;2023-07-29T15:51:00;25.00;99.90
17988;DHT22;9119;50.932;5.342;2023-07-29T15:53:25;25.30;99.90
17988;DHT22;9119;50.932;5.342;2023-07-29T15:55:51;25.40;99.90
17988;DHT22;9119;50.932;5.342;2023-07-29T15:58:17;25.30;99.90
17988;DHT22;9119;50.932;5.342;2023-07-29T16:00:42;25.10;99.90